»·PEaware :: UAL2054 KPDX-KSFO

UAL2054 :: KPDX-KSFO

FLIGHT INFORMATION

Flight Status: Arrived
Operator:
United Airlines
More flights by this operator :: More flights under this callsign
Pilot: Alfredo R. (12181)
Aircraft: AIRBUS A320
(A320)
More flights by this aircraft type
Origin: KPDX Portland Intl
United States
Destination: KSFO San Francisco Intl
United States
More flights between these airports :: More routes between these airports
Route: +MINNE5 EASON Q1 ETCHY MLBEC BDEGA3
File this flight plan on PilotEdge
Remarks:
Altitude:
(Current/Filed)
330ft
Speed:
(Current/Filed)
425kts
Departed: 03-Feb-20 02:09 PM
Arrived: 03-Feb-20 03:32 PM
Distance/Time
Traveled:
478nm/1:23
Distance/Time
To Go:
Arrived

Flight Plot

Page will automatically refresh every two minutes.

Flight plan parsing failed; only flown route is shown


Map Options




Map Legend


Flown Route
Filed Route
Departure Airport
Arrival Airport
Navaid (VOR, NDB)
Fix

Horizontal Profiles

Position Reports

Time Latitude Longitude Heading Altitude Ground
Speed
03-Feb-20 13:23 45.590047 -122.591045 209 25ft 0kts
03-Feb-20 13:24 45.590047 -122.591045 209 25ft 0kts
03-Feb-20 13:25 45.590047 -122.591045 209 25ft 0kts
03-Feb-20 13:26 45.590047 -122.591045 209 25ft 0kts
03-Feb-20 13:27 45.590047 -122.591045 209 25ft 0kts
03-Feb-20 13:28 45.590047 -122.591045 209 25ft 0kts
03-Feb-20 13:29 45.590047 -122.591045 209 25ft 0kts
03-Feb-20 13:30 45.590047 -122.591045 209 25ft 0kts
03-Feb-20 13:31 45.590047 -122.591045 209 25ft 0kts
03-Feb-20 13:32 45.590047 -122.591045 209 25ft 0kts
03-Feb-20 13:33 45.590047 -122.591045 209 25ft 0kts
03-Feb-20 13:34 45.590047 -122.591045 209 25ft 0kts
03-Feb-20 13:35 45.590047 -122.591045 209 25ft 0kts
03-Feb-20 13:36 45.590047 -122.591045 209 25ft 0kts
03-Feb-20 13:37 45.590047 -122.591045 209 25ft 0kts
03-Feb-20 13:38 45.590047 -122.591045 209 25ft 0kts
03-Feb-20 13:39 45.590047 -122.591045 209 25ft 0kts
03-Feb-20 13:40 45.590047 -122.591045 209 25ft 0kts
03-Feb-20 13:41 45.590047 -122.591045 209 25ft 0kts
03-Feb-20 13:42 45.590047 -122.591045 209 25ft 0kts
03-Feb-20 13:43 45.590047 -122.591045 209 25ft 0kts
03-Feb-20 13:44 45.590047 -122.591045 209 25ft 0kts
03-Feb-20 13:45 45.590047 -122.591045 209 25ft 0kts
03-Feb-20 13:46 45.590047 -122.591045 209 25ft 0kts
03-Feb-20 13:47 45.590047 -122.591045 209 25ft 0kts
03-Feb-20 13:48 45.590047 -122.591045 209 25ft 0kts
03-Feb-20 13:49 45.590047 -122.591045 209 25ft 0kts
03-Feb-20 13:50 45.590047 -122.591045 209 25ft 0kts
03-Feb-20 13:51 45.590047 -122.591045 209 25ft 0kts
03-Feb-20 13:52 45.590047 -122.591045 209 25ft 0kts
03-Feb-20 13:53 45.590047 -122.591045 209 25ft 0kts
03-Feb-20 13:54 45.590048 -122.591045 209 25ft 0kts
03-Feb-20 13:55 45.590048 -122.591045 209 25ft 0kts
03-Feb-20 13:56 45.590173 -122.590943 209 25ft 2kts
03-Feb-20 13:57 45.590618 -122.590401 265 25ft 2kts
03-Feb-20 13:58 45.590566 -122.590113 304 25ft 0kts
03-Feb-20 13:59 45.590566 -122.590113 304 25ft 0kts
03-Feb-20 14:00 45.590566 -122.590113 304 25ft 0kts
03-Feb-20 14:01 45.590566 -122.590113 304 25ft 0kts
03-Feb-20 14:02 45.590857 -122.590875 298 25ft 7kts
03-Feb-20 14:03 45.592556 -122.595228 298 26ft 14kts
03-Feb-20 14:04 45.594191 -122.597844 39 28ft 6kts
03-Feb-20 14:05 45.594467 -122.597461 44 28ft 0kts
03-Feb-20 14:06 45.594467 -122.597461 44 28ft 0kts
03-Feb-20 14:07 45.594773 -122.596851 66 28ft 10kts
03-Feb-20 14:08 45.586799 -122.575029 116 48ft 154kts
03-Feb-20 14:09 45.570794 -122.514103 90 2511ft 169kts
03-Feb-20 14:10 45.561021 -122.435197 100 3522ft 254kts
03-Feb-20 14:11 45.537692 -122.335600 135 6282ft 281kts
03-Feb-20 14:12 45.460538 -122.314818 181 9046ft 295kts
03-Feb-20 14:13 45.407315 -122.394318 249 10724ft 328kts
03-Feb-20 14:14 45.366743 -122.520368 251 12864ft 365kts
03-Feb-20 14:15 45.323579 -122.655369 251 15458ft 381kts
03-Feb-20 14:17 45.278345 -122.794639 252 17865ft 397kts
03-Feb-20 14:18 45.230179 -122.939889 244 20050ft 421kts
03-Feb-20 14:19 45.120482 -123.019973 205 21851ft 473kts
03-Feb-20 14:20 44.994043 -123.083648 204 23539ft 491kts
03-Feb-20 14:21 44.865136 -123.148092 205 25585ft 494kts
03-Feb-20 14:22 44.735542 -123.212561 206 27300ft 497kts
03-Feb-20 14:23 44.604787 -123.277352 207 28880ft 499kts
03-Feb-20 14:24 44.470319 -123.331464 181 30323ft 518kts
03-Feb-20 14:25 44.328403 -123.322277 181 32006ft 507kts
03-Feb-20 14:26 44.187864 -123.316566 181 33280ft 503kts
03-Feb-20 14:27 44.049621 -123.311024 181 33526ft 506kts
03-Feb-20 14:28 43.909762 -123.305518 181 33533ft 502kts
03-Feb-20 14:29 43.770915 -123.300128 181 34598ft 495kts
03-Feb-20 14:30 43.633246 -123.294617 180 35364ft 493kts
03-Feb-20 14:31 43.496288 -123.289312 180 35516ft 490kts
03-Feb-20 14:32 43.359487 -123.283932 181 35502ft 491kts
03-Feb-20 14:33 43.222690 -123.278591 181 35502ft 492kts
03-Feb-20 14:34 43.085259 -123.273348 180 35505ft 492kts
03-Feb-20 14:35 42.947851 -123.268068 180 35505ft 493kts
03-Feb-20 14:36 42.810778 -123.262823 181 35354ft 492kts
03-Feb-20 14:36 42.696213 -123.258377 181 35359ft 493kts
03-Feb-20 14:38 42.537423 -123.252370 180 35374ft 492kts
03-Feb-20 14:38 42.423717 -123.248230 180 35501ft 491kts
03-Feb-20 14:39 42.288071 -123.243186 181 35497ft 490kts
03-Feb-20 14:40 42.151715 -123.238234 181 35449ft 492kts
03-Feb-20 14:41 42.015614 -123.233157 181 35369ft 492kts
03-Feb-20 14:42 41.878374 -123.228208 181 35365ft 490kts
03-Feb-20 14:43 41.742182 -123.223243 180 35280ft 492kts
03-Feb-20 14:44 41.605907 -123.218248 181 35285ft 492kts
03-Feb-20 14:45 41.469627 -123.213645 181 35295ft 491kts
03-Feb-20 14:46 41.333277 -123.208925 181 35252ft 490kts
03-Feb-20 14:47 41.197094 -123.205493 181 35249ft 491kts
03-Feb-20 14:48 41.061223 -123.202098 181 35259ft 490kts
03-Feb-20 14:49 40.924874 -123.198566 182 35231ft 491kts
03-Feb-20 14:50 40.790067 -123.195256 181 35233ft 490kts
03-Feb-20 14:51 40.653990 -123.191782 182 35233ft 487kts
03-Feb-20 14:52 40.518452 -123.188435 182 35225ft 488kts
03-Feb-20 14:53 40.383054 -123.185096 181 35231ft 489kts
03-Feb-20 14:54 40.247205 -123.181736 182 35234ft 488kts
03-Feb-20 14:55 40.111684 -123.178395 182 35236ft 488kts
03-Feb-20 14:56 39.976319 -123.175019 182 35245ft 488kts
03-Feb-20 14:57 39.840941 -123.169161 180 35235ft 488kts
03-Feb-20 14:58 39.705248 -123.162904 180 35217ft 487kts
03-Feb-20 14:59 39.570803 -123.156700 181 35219ft 487kts
03-Feb-20 15:00 39.435715 -123.150505 181 35226ft 486kts
03-Feb-20 15:01 39.300363 -123.144289 181 35226ft 486kts
03-Feb-20 15:02 39.165890 -123.138174 181 35211ft 484kts
03-Feb-20 15:03 39.038687 -123.093514 139 33741ft 485kts
03-Feb-20 15:04 38.923058 -122.998019 143 32084ft 494kts
03-Feb-20 15:05 38.792856 -122.934654 167 30371ft 516kts
03-Feb-20 15:06 38.653438 -122.893403 167 28559ft 513kts
03-Feb-20 15:07 38.514143 -122.852353 167 26893ft 515kts
03-Feb-20 15:08 38.373450 -122.811037 167 25428ft 517kts
03-Feb-20 15:09 38.231212 -122.769434 167 23985ft 517kts
03-Feb-20 15:10 38.091451 -122.728739 167 22520ft 515kts
03-Feb-20 15:11 37.952782 -122.688540 167 20795ft 502kts
03-Feb-20 15:12 37.835667 -122.604194 135 19097ft 488kts
03-Feb-20 15:13 37.731553 -122.495321 137 17130ft 485kts
03-Feb-20 15:14 37.631189 -122.388362 135 14724ft 426kts
03-Feb-20 15:15 37.563313 -122.291860 155 12402ft 343kts
03-Feb-20 15:16 37.480194 -122.241954 153 11008ft 328kts
03-Feb-20 15:17 37.403846 -122.183623 115 11006ft 296kts
03-Feb-20 15:18 37.366779 -122.099632 113 10975ft 273kts
03-Feb-20 15:19 37.330484 -122.017453 113 9905ft 263kts
03-Feb-20 15:20 37.308814 -121.935879 50 8480ft 229kts
03-Feb-20 15:21 37.361898 -121.926700 351 7143ft 204kts
03-Feb-20 15:22 37.407577 -121.965692 323 5907ft 202kts
03-Feb-20 15:23 37.452273 -122.005913 325 4985ft 191kts
03-Feb-20 15:24 37.483520 -122.058846 305 4249ft 173kts
03-Feb-20 15:25 37.506780 -122.110274 303 3284ft 164kts
03-Feb-20 15:26 37.528347 -122.160661 302 3101ft 164kts
03-Feb-20 15:27 37.549526 -122.210832 301 2653ft 147kts
03-Feb-20 15:28 37.568400 -122.255422 301 1870ft 143kts
03-Feb-20 15:29 37.587336 -122.300375 302 1078ft 147kts
03-Feb-20 15:30 37.604998 -122.342392 302 349ft 131kts
03-Feb-20 15:31 37.618582 -122.374775 292 21ft 32kts
03-Feb-20 15:32 37.618967 -122.377511 267 26ft 0kts
03-Feb-20 15:33 37.619188 -122.380868 297 31ft 19kts
03-Feb-20 15:34 37.619199 -122.383567 290 31ft 0kts
03-Feb-20 15:35 37.619192 -122.383543 290 31ft 0kts

Navigation Log

Ident Type
Flight plan parsing failed, navigation log unavailable